sensor_id;sensor_type;location;lat;lon;timestamp;pressure;altitude;pressure_sealevel;temperature;humidity
57442;BME280;43284;47.042;15.498;2023-04-21T00:00:51;97112.44;;;5.51;93.97
57442;BME280;43284;47.042;15.498;2023-04-21T00:03:18;97112.34;;;5.53;94.61
57442;BME280;43284;47.042;15.498;2023-04-21T00:05:45;97111.97;;;5.37;92.20
57442;BME280;43284;47.042;15.498;2023-04-21T00:08:12;97105.00;;;5.39;93.66
57442;BME280;43284;47.042;15.498;2023-04-21T00:10:38;97110.22;;;5.37;93.67
57442;BME280;43284;47.042;15.498;2023-04-21T00:13:03;97110.28;;;5.36;94.14
57442;BME280;43284;47.042;15.498;2023-04-21T00:15:29;97100.78;;;5.35;94.40
57442;BME280;43284;47.042;15.498;2023-04-21T00:17:54;97106.94;;;5.31;94.52
57442;BME280;43284;47.042;15.498;2023-04-21T00:20:20;97097.66;;;5.24;93.65
57442;BME280;43284;47.042;15.498;2023-04-21T00:22:47;97102.25;;;5.14;92.57
57442;BME280;43284;47.042;15.498;2023-04-21T00:25:14;97091.25;;;5.06;93.24
57442;BME280;43284;47.042;15.498;2023-04-21T00:27:40;97091.00;;;5.15;92.93
57442;BME280;43284;47.042;15.498;2023-04-21T00:30:06;97087.63;;;5.11;93.71
57442;BME280;43284;47.042;15.498;2023-04-21T00:32:31;97093.81;;;5.07;94.00
57442;BME280;43284;47.042;15.498;2023-04-21T00:34:57;97092.22;;;5.02;93.66
57442;BME280;43284;47.042;15.498;2023-04-21T00:37:22;97089.53;;;5.05;94.35
57442;BME280;43284;47.042;15.498;2023-04-21T00:39:48;97081.78;;;5.05;94.70
57442;BME280;43284;47.042;15.498;2023-04-21T00:42:16;97081.75;;;5.06;95.36
57442;BME280;43284;47.042;15.498;2023-04-21T00:44:42;97084.38;;;5.05;95.36
57442;BME280;43284;47.042;15.498;2023-04-21T00:47:07;97083.53;;;5.04;95.70
57442;BME280;43284;47.042;15.498;2023-04-21T00:49:33;97080.78;;;5.09;96.27
57442;BME280;43284;47.042;15.498;2023-04-21T00:51:58;97080.88;;;5.07;95.91
57442;BME280;43284;47.042;15.498;2023-04-21T00:54:26;97080.66;;;5.13;97.04
57442;BME280;43284;47.042;15.498;2023-04-21T00:56:51;97076.28;;;5.15;97.22
57442;BME280;43284;47.042;15.498;2023-04-21T00:59:17;97074.59;;;5.14;97.37
57442;BME280;43284;47.042;15.498;2023-04-21T01:01:43;97078.16;;;5.10;96.14
57442;BME280;43284;47.042;15.498;2023-04-21T01:04:08;97072.22;;;5.07;95.54
57442;BME280;43284;47.042;15.498;2023-04-21T01:06:34;97073.25;;;5.01;95.32
57442;BME280;43284;47.042;15.498;2023-04-21T01:09:01;97067.16;;;5.02;96.59
57442;BME280;43284;47.042;15.498;2023-04-21T01:11:28;97069.72;;;5.04;96.81
57442;BME280;43284;47.042;15.498;2023-04-21T01:13:54;97077.50;;;5.04;96.69
57442;BME280;43284;47.042;15.498;2023-04-21T01:16:20;97081.88;;;5.02;96.34
57442;BME280;43284;47.042;15.498;2023-04-21T01:18:47;97088.00;;;4.99;96.03
57442;BME280;43284;47.042;15.498;2023-04-21T01:21:13;97083.75;;;4.97;95.95
57442;BME280;43284;47.042;15.498;2023-04-21T01:23:39;97081.34;;;4.89;94.70
57442;BME280;43284;47.042;15.498;2023-04-21T01:26:05;97081.31;;;4.90;94.96
57442;BME280;43284;47.042;15.498;2023-04-21T01:28:30;97079.81;;;4.82;94.33
57442;BME280;43284;47.042;15.498;2023-04-21T01:30:56;97076.41;;;4.81;94.24
57442;BME280;43284;47.042;15.498;2023-04-21T01:33:22;97079.88;;;4.79;94.79
57442;BME280;43284;47.042;15.498;2023-04-21T01:35:48;97076.44;;;4.80;94.98
57442;BME280;43284;47.042;15.498;2023-04-21T01:38:14;97079.88;;;4.79;95.99
57442;BME280;43284;47.042;15.498;2023-04-21T01:40:44;97071.22;;;4.81;96.71
57442;BME280;43284;47.042;15.498;2023-04-21T01:43:11;97074.44;;;4.89;97.54
57442;BME280;43284;47.042;15.498;2023-04-21T01:45:37;97075.34;;;4.88;96.68
57442;BME280;43284;47.042;15.498;2023-04-21T01:48:02;97075.66;;;4.76;95.68
57442;BME280;43284;47.042;15.498;2023-04-21T01:50:28;97071.16;;;4.83;96.07
57442;BME280;43284;47.042;15.498;2023-04-21T01:52:54;97078.94;;;4.83;97.18
57442;BME280;43284;47.042;15.498;2023-04-21T01:55:19;97076.31;;;4.84;97.44
57442;BME280;43284;47.042;15.498;2023-04-21T01:57:45;97071.84;;;4.89;98.11
57442;BME280;43284;47.042;15.498;2023-04-21T02:00:11;97069.88;;;4.98;98.63
57442;BME280;43284;47.042;15.498;2023-04-21T02:02:37;97070.50;;;5.07;99.27
57442;BME280;43284;47.042;15.498;2023-04-21T02:05:02;97072.28;;;5.05;99.19
57442;BME280;43284;47.042;15.498;2023-04-21T02:07:28;97080.06;;;5.05;98.27
57442;BME280;43284;47.042;15.498;2023-04-21T02:09:53;97072.16;;;5.10;98.79
57442;BME280;43284;47.042;15.498;2023-04-21T02:12:19;97067.13;;;5.04;97.70
57442;BME280;43284;47.042;15.498;2023-04-21T02:14:44;97071.47;;;5.03;97.46
57442;BME280;43284;47.042;15.498;2023-04-21T02:17:12;97064.56;;;5.02;97.41
57442;BME280;43284;47.042;15.498;2023-04-21T02:19:39;97069.03;;;4.97;97.18
57442;BME280;43284;47.042;15.498;2023-04-21T02:22:05;97062.03;;;5.01;97.24
57442;BME280;43284;47.042;15.498;2023-04-21T02:24:33;97068.88;;;5.03;97.34
57442;BME280;43284;47.042;15.498;2023-04-21T02:26:58;97067.16;;;5.02;97.77
57442;BME280;43284;47.042;15.498;2023-04-21T02:29:24;97066.50;;;4.95;97.36
57442;BME280;43284;47.042;15.498;2023-04-21T02:31:49;97074.19;;;4.99;97.53
57442;BME280;43284;47.042;15.498;2023-04-21T02:34:15;97069.84;;;4.99;97.53
57442;BME280;43284;47.042;15.498;2023-04-21T02:36:40;97073.28;;;5.00;97.40
57442;BME280;43284;47.042;15.498;2023-04-21T02:39:06;97070.66;;;5.01;97.51
57442;BME280;43284;47.042;15.498;2023-04-21T02:41:31;97077.63;;;4.99;98.23
57442;BME280;43284;47.042;15.498;2023-04-21T02:43:57;97071.53;;;5.00;98.26
57442;BME280;43284;47.042;15.498;2023-04-21T02:46:22;97076.72;;;5.00;98.16
57442;BME280;43284;47.042;15.498;2023-04-21T02:48:48;97070.69;;;5.00;98.51
57442;BME280;43284;47.042;15.498;2023-04-21T02:51:13;97069.88;;;4.98;98.14
57442;BME280;43284;47.042;15.498;2023-04-21T02:53:40;97067.31;;;4.98;98.42
57442;BME280;43284;47.042;15.498;2023-04-21T02:56:06;97071.59;;;4.99;98.32
57442;BME280;43284;47.042;15.498;2023-04-21T02:58:34;97068.94;;;5.00;98.92
57442;BME280;43284;47.042;15.498;2023-04-21T03:01:00;97068.06;;;5.01;99.25
57442;BME280;43284;47.042;15.498;2023-04-21T03:03:26;97069.84;;;4.99;98.79
57442;BME280;43284;47.042;15.498;2023-04-21T03:05:59;97065.69;;;4.93;98.42
57442;BME280;43284;47.042;15.498;2023-04-21T03:08:25;97066.44;;;4.99;99.18
57442;BME280;43284;47.042;15.498;2023-04-21T03:10:51;97067.19;;;5.01;99.49
57442;BME280;43284;47.042;15.498;2023-04-21T03:13:16;97070.66;;;5.01;99.07
57442;BME280;43284;47.042;15.498;2023-04-21T03:15:42;97068.06;;;5.01;99.52
57442;BME280;43284;47.042;15.498;2023-04-21T03:18:11;97069.84;;;4.99;98.98
57442;BME280;43284;47.042;15.498;2023-04-21T03:20:36;97063.94;;;4.94;98.20
57442;BME280;43284;47.042;15.498;2023-04-21T03:23:02;97063.91;;;4.95;98.42
57442;BME280;43284;47.042;15.498;2023-04-21T03:25:28;97063.91;;;4.95;98.33
57442;BME280;43284;47.042;15.498;2023-04-21T03:27:54;97062.25;;;4.93;98.33
57442;BME280;43284;47.042;15.498;2023-04-21T03:30:20;97055.38;;;4.92;98.14
57442;BME280;43284;47.042;15.498;2023-04-21T03:32:46;97056.28;;;4.89;97.85
57442;BME280;43284;47.042;15.498;2023-04-21T03:35:11;97059.78;;;4.88;97.82
57442;BME280;43284;47.042;15.498;2023-04-21T03:37:37;97058.13;;;4.86;97.81
57442;BME280;43284;47.042;15.498;2023-04-21T03:40:03;97054.78;;;4.82;97.86
57442;BME280;43284;47.042;15.498;2023-04-21T03:42:33;97048.63;;;4.86;98.70
57442;BME280;43284;47.042;15.498;2023-04-21T03:45:07;97052.16;;;4.84;97.76
57442;BME280;43284;47.042;15.498;2023-04-21T03:47:33;97057.38;;;4.82;97.47
57442;BME280;43284;47.042;15.498;2023-04-21T03:49:58;97056.50;;;4.83;97.69
57442;BME280;43284;47.042;15.498;2023-04-21T03:52:24;97052.34;;;4.76;96.92
57442;BME280;43284;47.042;15.498;2023-04-21T03:54:50;97049.91;;;4.70;96.13
57442;BME280;43284;47.042;15.498;2023-04-21T03:57:16;97059.44;;;4.69;95.83
57442;BME280;43284;47.042;15.498;2023-04-21T03:59:42;97058.69;;;4.66;95.55
57442;BME280;43284;47.042;15.498;2023-04-21T04:02:08;97060.66;;;4.56;95.54
57442;BME280;43284;47.042;15.498;2023-04-21T04:04:33;97070.13;;;4.57;97.15
57442;BME280;43284;47.042;15.498;2023-04-21T04:06:59;97073.00;;;4.46;96.32
57442;BME280;43284;47.042;15.498;2023-04-21T04:09:25;97074.13;;;4.34;95.50
57442;BME280;43284;47.042;15.498;2023-04-21T04:11:50;97072.38;;;4.37;96.91
57442;BME280;43284;47.042;15.498;2023-04-21T04:14:16;97068.34;;;4.25;96.17
57442;BME280;43284;47.042;15.498;2023-04-21T04:16:41;97068.16;;;4.32;96.97
57442;BME280;43284;47.042;15.498;2023-04-21T04:19:07;97078.47;;;4.34;97.53
57442;BME280;43284;47.042;15.498;2023-04-21T04:21:33;97077.53;;;4.37;97.52
57442;BME280;43284;47.042;15.498;2023-04-21T04:23:59;97082.72;;;4.37;97.61
57442;BME280;43284;47.042;15.498;2023-04-21T04:26:26;97088.72;;;4.37;97.94
57442;BME280;43284;47.042;15.498;2023-04-21T04:28:52;97093.00;;;4.40;98.43
57442;BME280;43284;47.042;15.498;2023-04-21T04:31:20;97100.81;;;4.37;98.21
57442;BME280;43284;47.042;15.498;2023-04-21T04:33:46;97096.56;;;4.36;98.14
57442;BME280;43284;47.042;15.498;2023-04-21T04:36:12;97100.84;;;4.35;98.56
57442;BME280;43284;47.042;15.498;2023-04-21T04:38:37;97097.28;;;4.41;98.96
57442;BME280;43284;47.042;15.498;2023-04-21T04:41:03;97096.19;;;4.49;99.29
57442;BME280;43284;47.042;15.498;2023-04-21T04:43:29;97093.38;;;4.59;99.90
57442;BME280;43284;47.042;15.498;2023-04-21T04:45:58;97092.41;;;4.63;99.97
57442;BME280;43284;47.042;15.498;2023-04-21T04:48:24;97100.00;;;4.69;99.88
57442;BME280;43284;47.042;15.498;2023-04-21T04:50:49;97104.78;;;4.84;100.00
57442;BME280;43284;47.042;15.498;2023-04-21T04:53:16;97113.13;;;4.95;100.00
57442;BME280;43284;47.042;15.498;2023-04-21T04:55:41;97104.28;;;5.03;100.00
57442;BME280;43284;47.042;15.498;2023-04-21T04:58:07;97102.34;;;5.11;100.00
57442;BME280;43284;47.042;15.498;2023-04-21T05:00:32;97099.53;;;5.19;100.00
57442;BME280;43284;47.042;15.498;2023-04-21T05:02:58;97103.50;;;5.30;100.00
57442;BME280;43284;47.042;15.498;2023-04-21T05:05:24;97094.66;;;5.37;100.00
57442;BME280;43284;47.042;15.498;2023-04-21T05:07:49;97095.25;;;5.47;100.00
57442;BME280;43284;47.042;15.498;2023-04-21T05:10:15;97102.72;;;5.58;100.00
57442;BME280;43284;47.042;15.498;2023-04-21T05:12:41;97110.19;;;5.69;100.00
57442;BME280;43284;47.042;15.498;2023-04-21T05:15:07;97109.91;;;5.78;100.00
57442;BME280;43284;47.042;15.498;2023-04-21T05:17:32;97111.34;;;5.88;100.00
57442;BME280;43284;47.042;15.498;2023-04-21T05:19:58;97119.72;;;5.96;100.00
57442;BME280;43284;47.042;15.498;2023-04-21T05:22:24;97112.56;;;6.05;100.00
57442;BME280;43284;47.042;15.498;2023-04-21T05:24:51;97108.03;;;6.11;100.00
57442;BME280;43284;47.042;15.498;2023-04-21T05:27:16;97108.78;;;6.15;100.00
57442;BME280;43284;47.042;15.498;2023-04-21T05:29:42;97115.59;;;6.19;100.00
57442;BME280;43284;47.042;15.498;2023-04-21T05:32:07;97110.19;;;6.25;100.00
57442;BME280;43284;47.042;15.498;2023-04-21T05:34:33;97119.53;;;6.31;100.00
57442;BME280;43284;47.042;15.498;2023-04-21T05:36:59;97116.78;;;6.35;100.00
57442;BME280;43284;47.042;15.498;2023-04-21T05:39:26;97111.41;;;6.42;99.58
57442;BME280;43284;47.042;15.498;2023-04-21T05:41:52;97113.84;;;6.46;99.64
57442;BME280;43284;47.042;15.498;2023-04-21T05:44:18;97106.81;;;6.50;99.01
57442;BME280;43284;47.042;15.498;2023-04-21T05:46:43;97109.25;;;6.54;98.30
57442;BME280;43284;47.042;15.498;2023-04-21T05:49:08;97116.88;;;6.59;98.21
57442;BME280;43284;47.042;15.498;2023-04-21T05:51:34;97120.00;;;6.69;98.43
57442;BME280;43284;47.042;15.498;2023-04-21T05:53:59;97117.19;;;6.75;97.79
57442;BME280;43284;47.042;15.498;2023-04-21T05:56:25;97117.78;;;6.83;97.62
57442;BME280;43284;47.042;15.498;2023-04-21T05:58:51;97115.78;;;6.91;97.72
57442;BME280;43284;47.042;15.498;2023-04-21T06:01:16;97116.25;;;7.03;97.25
57442;BME280;43284;47.042;15.498;2023-04-21T06:03:42;97115.72;;;7.18;97.34
57442;BME280;43284;47.042;15.498;2023-04-21T06:06:07;97115.94;;;7.35;96.90
57442;BME280;43284;47.042;15.498;2023-04-21T06:08:34;97115.22;;;7.55;96.19
57442;BME280;43284;47.042;15.498;2023-04-21T06:11:00;97113.78;;;7.70;95.79
57442;BME280;43284;47.042;15.498;2023-04-21T06:13:25;97113.22;;;7.86;95.34
57442;BME280;43284;47.042;15.498;2023-04-21T06:15:55;97112.63;;;8.01;95.44
57442;BME280;43284;47.042;15.498;2023-04-21T06:18:20;97112.06;;;8.15;94.30
57442;BME280;43284;47.042;15.498;2023-04-21T06:20:50;97115.94;;;8.27;93.48
57442;BME280;43284;47.042;15.498;2023-04-21T06:23:16;97117.19;;;8.38;92.71
57442;BME280;43284;47.042;15.498;2023-04-21T06:25:41;97110.81;;;8.47;92.08
57442;BME280;43284;47.042;15.498;2023-04-21T06:28:07;97116.38;;;8.60;91.11
57442;BME280;43284;47.042;15.498;2023-04-21T06:30:32;97120.25;;;8.70;90.07
57442;BME280;43284;47.042;15.498;2023-04-21T06:32:58;97112.13;;;8.78;90.07
57442;BME280;43284;47.042;15.498;2023-04-21T06:35:23;97110.16;;;8.83;89.48
57442;BME280;43284;47.042;15.498;2023-04-21T06:37:49;97118.56;;;8.90;88.81
57442;BME280;43284;47.042;15.498;2023-04-21T06:40:14;97118.91;;;9.02;89.84
57442;BME280;43284;47.042;15.498;2023-04-21T06:42:40;97120.53;;;9.05;88.97
57442;BME280;43284;47.042;15.498;2023-04-21T06:45:06;97119.69;;;9.04;87.50
57442;BME280;43284;47.042;15.498;2023-04-21T06:47:32;97113.63;;;9.04;85.97
57442;BME280;43284;47.042;15.498;2023-04-21T06:49:57;97111.66;;;9.09;85.06
57442;BME280;43284;47.042;15.498;2023-04-21T06:52:23;97107.13;;;9.14;84.81
57442;BME280;43284;47.042;15.498;2023-04-21T06:54:48;97112.97;;;9.19;84.57
57442;BME280;43284;47.042;15.498;2023-04-21T06:57:14;97110.09;;;9.25;84.66
57442;BME280;43284;47.042;15.498;2023-04-21T06:59:41;97114.16;;;9.31;84.94
57442;BME280;43284;47.042;15.498;2023-04-21T07:02:07;97115.69;;;9.37;85.40
57442;BME280;43284;47.042;15.498;2023-04-21T07:04:32;97111.09;;;9.42;85.75
57442;BME280;43284;47.042;15.498;2023-04-21T07:06:58;97114.25;;;9.48;86.81
57442;BME280;43284;47.042;15.498;2023-04-21T07:09:23;97125.38;;;9.54;86.50
57442;BME280;43284;47.042;15.498;2023-04-21T07:11:49;97121.56;;;9.61;85.47
57442;BME280;43284;47.042;15.498;2023-04-21T07:14:14;97121.91;;;9.72;85.48
57442;BME280;43284;47.042;15.498;2023-04-21T07:16:40;97120.69;;;9.79;85.24
57442;BME280;43284;47.042;15.498;2023-04-21T07:19:06;97110.53;;;9.92;83.92
57442;BME280;43284;47.042;15.498;2023-04-21T07:21:31;97115.91;;;10.08;84.10
57442;BME280;43284;47.042;15.498;2023-04-21T07:24:01;97114.09;;;10.27;83.52
57442;BME280;43284;47.042;15.498;2023-04-21T07:26:27;97114.38;;;10.40;82.90
57442;BME280;43284;47.042;15.498;2023-04-21T07:28:52;97106.84;;;10.69;78.01
57442;BME280;43284;47.042;15.498;2023-04-21T07:31:19;97113.41;;;10.78;78.84
57442;BME280;43284;47.042;15.498;2023-04-21T07:33:45;97116.34;;;10.89;79.01
57442;BME280;43284;47.042;15.498;2023-04-21T07:36:10;97109.22;;;11.08;76.44
57442;BME280;43284;47.042;15.498;2023-04-21T07:38:36;97117.63;;;11.15;76.30
57442;BME280;43284;47.042;15.498;2023-04-21T07:41:03;97115.72;;;11.34;75.23
57442;BME280;43284;47.042;15.498;2023-04-21T07:43:29;97109.09;;;11.45;72.18
57442;BME280;43284;47.042;15.498;2023-04-21T07:45:56;97120.00;;;11.53;74.88
57442;BME280;43284;47.042;15.498;2023-04-21T07:48:22;97117.72;;;11.63;75.21
57442;BME280;43284;47.042;15.498;2023-04-21T07:50:47;97116.13;;;11.76;75.11
57442;BME280;43284;47.042;15.498;2023-04-21T07:53:14;97116.25;;;11.74;74.62
57442;BME280;43284;47.042;15.498;2023-04-21T07:55:40;97120.59;;;11.74;74.50
57442;BME280;43284;47.042;15.498;2023-04-21T07:58:06;97111.25;;;11.86;73.24
57442;BME280;43284;47.042;15.498;2023-04-21T08:00:31;97113.34;;;11.97;71.50
57442;BME280;43284;47.042;15.498;2023-04-21T08:02:57;97111.72;;;12.10;72.16
57442;BME280;43284;47.042;15.498;2023-04-21T08:05:23;97105.78;;;12.22;69.73
57442;BME280;43284;47.042;15.498;2023-04-21T08:07:48;97107.78;;;12.33;68.63
57442;BME280;43284;47.042;15.498;2023-04-21T08:10:14;97111.06;;;12.52;71.17
57442;BME280;43284;47.042;15.498;2023-04-21T08:12:40;97113.41;;;12.57;67.07
57442;BME280;43284;47.042;15.498;2023-04-21T08:15:06;97112.81;;;12.68;68.22
57442;BME280;43284;47.042;15.498;2023-04-21T08:17:33;97109.47;;;12.80;68.55
57442;BME280;43284;47.042;15.498;2023-04-21T08:19:59;97113.34;;;12.89;64.75
57442;BME280;43284;47.042;15.498;2023-04-21T08:22:25;97108.63;;;13.10;64.75
57442;BME280;43284;47.042;15.498;2023-04-21T08:24:50;97101.84;;;13.06;63.91
57442;BME280;43284;47.042;15.498;2023-04-21T08:27:16;97107.47;;;12.99;64.74
57442;BME280;43284;47.042;15.498;2023-04-21T08:29:41;97097.38;;;13.22;67.41
57442;BME280;43284;47.042;15.498;2023-04-21T08:32:07;97091.88;;;13.41;66.34
57442;BME280;43284;47.042;15.498;2023-04-21T08:34:33;97097.13;;;13.41;63.21
57442;BME280;43284;47.042;15.498;2023-04-21T08:36:58;97094.50;;;13.55;63.58
57442;BME280;43284;47.042;15.498;2023-04-21T08:39:24;97092.78;;;13.83;66.29
57442;BME280;43284;47.042;15.498;2023-04-21T08:41:49;97091.94;;;13.83;61.32
57442;BME280;43284;47.042;15.498;2023-04-21T08:44:15;97090.06;;;13.85;62.25
57442;BME280;43284;47.042;15.498;2023-04-21T08:46:44;97078.69;;;13.98;63.52
57442;BME280;43284;47.042;15.498;2023-04-21T08:49:11;97084.75;;;14.13;65.05
57442;BME280;43284;47.042;15.498;2023-04-21T08:51:37;97085.72;;;14.25;64.49
57442;BME280;43284;47.042;15.498;2023-04-21T08:54:02;97082.84;;;14.42;63.52
57442;BME280;43284;47.042;15.498;2023-04-21T08:56:28;97075.69;;;14.45;61.30
57442;BME280;43284;47.042;15.498;2023-04-21T08:58:55;97086.13;;;14.46;61.72
57442;BME280;43284;47.042;15.498;2023-04-21T09:01:20;97092.09;;;14.62;62.38
57442;BME280;43284;47.042;15.498;2023-04-21T09:03:46;97085.19;;;14.74;60.36
57442;BME280;43284;47.042;15.498;2023-04-21T09:06:11;97090.53;;;14.73;60.13
57442;BME280;43284;47.042;15.498;2023-04-21T09:08:40;97090.22;;;14.77;59.35
57442;BME280;43284;47.042;15.498;2023-04-21T09:11:06;97080.28;;;14.55;59.10
57442;BME280;43284;47.042;15.498;2023-04-21T09:15:59;97086.84;;;14.75;59.38
57442;BME280;43284;47.042;15.498;2023-04-21T09:18:27;97080.16;;;14.97;59.18
57442;BME280;43284;47.042;15.498;2023-04-21T09:21:06;97084.59;;;14.96;57.14
57442;BME280;43284;47.042;15.498;2023-04-21T09:23:49;97079.41;;;14.95;58.47
57442;BME280;43284;47.042;15.498;2023-04-21T09:26:16;97085.25;;;14.60;58.29
57442;BME280;43284;47.042;15.498;2023-04-21T09:28:43;97082.88;;;14.70;59.51
57442;BME280;43284;47.042;15.498;2023-04-21T09:33:45;97083.03;;;14.67;59.01
57442;BME280;43284;47.042;15.498;2023-04-21T09:36:23;97081.41;;;14.51;57.74
57442;BME280;43284;47.042;15.498;2023-04-21T09:39:03;97077.94;;;14.51;56.17
57442;BME280;43284;47.042;15.498;2023-04-21T09:41:32;97080.19;;;14.57;57.48
57442;BME280;43284;47.042;15.498;2023-04-21T09:43:57;97082.41;;;14.36;57.08
57442;BME280;43284;47.042;15.498;2023-04-21T09:46:28;97074.88;;;14.44;58.32
57442;BME280;43284;47.042;15.498;2023-04-21T09:48:54;97072.75;;;14.49;58.66
57442;BME280;43284;47.042;15.498;2023-04-21T09:51:21;97068.22;;;14.38;58.10
57442;BME280;43284;47.042;15.498;2023-04-21T09:53:52;97066.28;;;14.28;57.10
57442;BME280;43284;47.042;15.498;2023-04-21T09:56:20;97066.84;;;14.33;57.40
57442;BME280;43284;47.042;15.498;2023-04-21T09:58:51;97066.75;;;14.47;58.44
57442;BME280;43284;47.042;15.498;2023-04-21T10:01:18;97063.81;;;14.39;57.12
57442;BME280;43284;47.042;15.498;2023-04-21T10:03:47;97064.44;;;14.42;57.08
57442;BME280;43284;47.042;15.498;2023-04-21T10:06:13;97059.75;;;14.48;56.00
57442;BME280;43284;47.042;15.498;2023-04-21T10:08:39;97065.16;;;14.59;55.60
57442;BME280;43284;47.042;15.498;2023-04-21T10:11:05;97057.03;;;14.62;56.04
57442;BME280;43284;47.042;15.498;2023-04-21T10:13:32;97062.44;;;14.73;57.16
57442;BME280;43284;47.042;15.498;2023-04-21T10:16:05;97060.41;;;14.64;55.23
57442;BME280;43284;47.042;15.498;2023-04-21T10:18:41;97059.63;;;14.76;55.33
57442;BME280;43284;47.042;15.498;2023-04-21T10:21:09;97058.66;;;14.77;54.58
57442;BME280;43284;47.042;15.498;2023-04-21T10:23:36;97058.69;;;14.90;56.58
57442;BME280;43284;47.042;15.498;2023-04-21T10:26:25;97057.19;;;14.86;54.17
57442;BME280;43284;47.042;15.498;2023-04-21T10:28:59;97054.88;;;14.94;54.52
57442;BME280;43284;47.042;15.498;2023-04-21T10:31:33;97050.88;;;14.89;53.75
57442;BME280;43284;47.042;15.498;2023-04-21T10:36:31;97044.16;;;14.97;55.60
57442;BME280;43284;47.042;15.498;2023-04-21T10:39:00;97044.78;;;15.14;56.63
57442;BME280;43284;47.042;15.498;2023-04-21T10:41:31;97045.41;;;15.17;57.98
57442;BME280;43284;47.042;15.498;2023-04-21T10:44:01;97037.00;;;15.25;57.06
57442;BME280;43284;47.042;15.498;2023-04-21T10:46:44;97037.22;;;15.09;57.20
57442;BME280;43284;47.042;15.498;2023-04-21T10:57:00;97032.94;;;15.58;53.91
57442;BME280;43284;47.042;15.498;2023-04-21T10:59:27;97029.34;;;15.59;55.26
57442;BME280;43284;47.042;15.498;2023-04-21T11:01:53;97034.19;;;15.65;54.53
57442;BME280;43284;47.042;15.498;2023-04-21T11:04:20;97023.44;;;15.68;54.74
57442;BME280;43284;47.042;15.498;2023-04-21T11:07:08;97027.00;;;15.80;53.86
57442;BME280;43284;47.042;15.498;2023-04-21T11:09:35;97026.94;;;15.43;53.81
57442;BME280;43284;47.042;15.498;2023-04-21T11:12:03;97020.94;;;15.41;55.18
57442;BME280;43284;47.042;15.498;2023-04-21T11:14:32;97022.00;;;15.38;54.88
57442;BME280;43284;47.042;15.498;2023-04-21T11:16:58;97020.84;;;15.42;56.01
57442;BME280;43284;47.042;15.498;2023-04-21T11:19:23;97020.28;;;15.50;55.15
57442;BME280;43284;47.042;15.498;2023-04-21T11:21:52;97021.22;;;15.62;55.50
57442;BME280;43284;47.042;15.498;2023-04-21T11:24:19;97015.22;;;15.60;53.90
57442;BME280;43284;47.042;15.498;2023-04-21T11:26:45;97019.34;;;15.77;53.21
57442;BME280;43284;47.042;15.498;2023-04-21T11:29:11;97011.09;;;15.81;54.84
57442;BME280;43284;47.042;15.498;2023-04-21T11:31:38;97015.00;;;15.76;56.72
57442;BME280;43284;47.042;15.498;2023-04-21T11:34:05;97014.41;;;15.72;54.76
57442;BME280;43284;47.042;15.498;2023-04-21T11:36:43;97011.19;;;15.67;55.43
57442;BME280;43284;47.042;15.498;2023-04-21T11:39:10;97007.72;;;15.66;54.67
57442;BME280;43284;47.042;15.498;2023-04-21T11:41:46;97010.03;;;15.84;53.87
57442;BME280;43284;47.042;15.498;2023-04-21T11:44:13;97012.09;;;15.92;56.16
57442;BME280;43284;47.042;15.498;2023-04-21T11:46:45;97000.25;;;15.97;53.52
57442;BME280;43284;47.042;15.498;2023-04-21T11:49:11;97007.44;;;15.95;53.80
57442;BME280;43284;47.042;15.498;2023-04-21T11:51:39;97004.81;;;16.19;54.65
57442;BME280;43284;47.042;15.498;2023-04-21T11:54:07;97002.44;;;16.27;51.99
57442;BME280;43284;47.042;15.498;2023-04-21T11:56:36;97003.78;;;16.33;53.05
57442;BME280;43284;47.042;15.498;2023-04-21T11:59:09;97006.97;;;16.50;51.57
57442;BME280;43284;47.042;15.498;2023-04-21T12:01:42;97002.69;;;16.60;52.60
57442;BME280;43284;47.042;15.498;2023-04-21T12:04:12;96995.97;;;16.67;51.66
57442;BME280;43284;47.042;15.498;2023-04-21T12:06:38;97000.03;;;16.60;50.56
57442;BME280;43284;47.042;15.498;2023-04-21T12:09:04;97002.91;;;16.57;51.65
57442;BME280;43284;47.042;15.498;2023-04-21T12:11:30;97002.09;;;16.32;49.05
57442;BME280;43284;47.042;15.498;2023-04-21T12:13:59;96997.22;;;16.15;48.84
57442;BME280;43284;47.042;15.498;2023-04-21T12:16:27;97002.63;;;16.13;50.62
57442;BME280;43284;47.042;15.498;2023-04-21T12:18:56;96999.53;;;16.19;52.79
57442;BME280;43284;47.042;15.498;2023-04-21T12:21:31;96997.34;;;16.13;52.88
57442;BME280;43284;47.042;15.498;2023-04-21T12:23:56;96994.31;;;16.06;52.85
57442;BME280;43284;47.042;15.498;2023-04-21T12:26:22;96994.56;;;16.03;53.19
57442;BME280;43284;47.042;15.498;2023-04-21T12:28:51;97002.13;;;15.84;53.57
57442;BME280;43284;47.042;15.498;2023-04-21T12:31:17;97005.63;;;15.72;53.12
57442;BME280;43284;47.042;15.498;2023-04-21T12:33:43;97009.56;;;15.53;52.04
57442;BME280;43284;47.042;15.498;2023-04-21T12:36:08;97002.75;;;15.38;52.97
57442;BME280;43284;47.042;15.498;2023-04-21T12:38:34;97015.09;;;15.12;54.25
57442;BME280;43284;47.042;15.498;2023-04-21T12:40:59;97013.59;;;14.82;55.34
57442;BME280;43284;47.042;15.498;2023-04-21T12:43:25;97013.41;;;14.85;56.25
57442;BME280;43284;47.042;15.498;2023-04-21T12:45:50;97012.63;;;14.57;56.39
57442;BME280;43284;47.042;15.498;2023-04-21T12:48:17;97015.72;;;14.37;57.88
57442;BME280;43284;47.042;15.498;2023-04-21T12:50:44;97033.25;;;13.96;58.53
57442;BME280;43284;47.042;15.498;2023-04-21T12:53:11;97032.34;;;13.83;60.57
57442;BME280;43284;47.042;15.498;2023-04-21T12:55:36;97033.13;;;13.71;60.25
57442;BME280;43284;47.042;15.498;2023-04-21T12:58:02;97035.25;;;13.51;62.50
57442;BME280;43284;47.042;15.498;2023-04-21T13:00:28;97035.69;;;13.29;63.70
57442;BME280;43284;47.042;15.498;2023-04-21T13:02:53;97031.00;;;13.20;65.82
57442;BME280;43284;47.042;15.498;2023-04-21T13:05:19;97032.88;;;13.04;66.72
57442;BME280;43284;47.042;15.498;2023-04-21T13:07:44;97031.97;;;12.74;68.00